sensor_id;sensor_type;location;lat;lon;timestamp;pressure;altitude;pressure_sealevel;temperature;humidity
9690;BME280;4884;42.614;23.340;2024-03-02T00:02:07;92096.28;;;4.78;100.00
9690;BME280;4884;42.614;23.340;2024-03-02T00:04:33;92077.97;;;4.71;100.00
9690;BME280;4884;42.614;23.340;2024-03-02T00:06:58;92156.25;;;5.29;100.00
9690;BME280;4884;42.614;23.340;2024-03-02T00:09:24;92173.69;;;5.32;100.00
9690;BME280;4884;42.614;23.340;2024-03-02T00:11:49;92064.06;;;4.72;100.00
9690;BME280;4884;42.614;23.340;2024-03-02T00:14:16;92023.53;;;4.51;100.00
9690;BME280;4884;42.614;23.340;2024-03-02T00:16:42;92147.63;;;5.25;100.00
9690;BME280;4884;42.614;23.340;2024-03-02T00:19:08;92020.91;;;4.34;100.00
9690;BME280;4884;42.614;23.340;2024-03-02T00:21:34;92139.47;;;5.15;100.00
9690;BME280;4884;42.614;23.340;2024-03-02T00:24:01;92172.28;;;5.26;100.00
9690;BME280;4884;42.614;23.340;2024-03-02T00:26:32;92031.94;;;4.43;100.00
9690;BME280;4884;42.614;23.340;2024-03-02T00:28:59;92145.06;;;5.17;100.00
9690;BME280;4884;42.614;23.340;2024-03-02T00:31:25;92027.44;;;4.40;100.00
9690;BME280;4884;42.614;23.340;2024-03-02T00:33:51;92008.22;;;4.29;100.00
9690;BME280;4884;42.614;23.340;2024-03-02T00:36:22;92151.13;;;5.29;100.00
9690;BME280;4884;42.614;23.340;2024-03-02T00:38:51;92026.38;;;4.50;100.00
9690;BME280;4884;42.614;23.340;2024-03-02T00:41:30;92120.94;;;4.96;100.00
9690;BME280;4884;42.614;23.340;2024-03-02T00:46:27;92164.25;;;5.11;100.00
9690;BME280;4884;42.614;23.340;2024-03-02T00:48:54;92127.75;;;5.00;100.00
9690;BME280;4884;42.614;23.340;2024-03-02T00:51:21;92108.56;;;4.98;100.00
9690;BME280;4884;42.614;23.340;2024-03-02T00:53:47;92030.78;;;4.49;100.00
9690;BME280;4884;42.614;23.340;2024-03-02T00:56:13;91989.66;;;4.41;100.00
9690;BME280;4884;42.614;23.340;2024-03-02T00:58:39;92108.47;;;5.37;100.00
9690;BME280;4884;42.614;23.340;2024-03-02T01:01:05;92119.63;;;5.58;100.00
9690;BME280;4884;42.614;23.340;2024-03-02T01:03:32;92147.94;;;5.75;100.00
9690;BME280;4884;42.614;23.340;2024-03-02T01:05:58;92119.94;;;5.74;100.00
9690;BME280;4884;42.614;23.340;2024-03-02T01:08:23;92150.25;;;5.94;100.00
9690;BME280;4884;42.614;23.340;2024-03-02T01:10:49;91968.03;;;4.76;100.00
9690;BME280;4884;42.614;23.340;2024-03-02T01:13:14;92111.16;;;5.66;100.00
9690;BME280;4884;42.614;23.340;2024-03-02T01:15:40;92121.16;;;5.68;100.00
9690;BME280;4884;42.614;23.340;2024-03-02T01:18:05;92142.50;;;5.85;100.00
9690;BME280;4884;42.614;23.340;2024-03-02T01:20:31;92111.59;;;5.68;100.00
9690;BME280;4884;42.614;23.340;2024-03-02T01:22:56;92098.28;;;5.66;100.00
9690;BME280;4884;42.614;23.340;2024-03-02T01:25:22;92109.19;;;5.63;100.00
9690;BME280;4884;42.614;23.340;2024-03-02T01:27:47;92101.50;;;5.55;100.00
9690;BME280;4884;42.614;23.340;2024-03-02T01:30:12;92098.75;;;5.51;100.00
9690;BME280;4884;42.614;23.340;2024-03-02T01:32:38;92124.66;;;5.63;100.00
9690;BME280;4884;42.614;23.340;2024-03-02T01:35:05;91984.09;;;4.65;100.00
9690;BME280;4884;42.614;23.340;2024-03-02T01:37:30;92077.59;;;5.28;100.00
9690;BME280;4884;42.614;23.340;2024-03-02T01:39:56;92111.78;;;5.55;100.00
9690;BME280;4884;42.614;23.340;2024-03-02T01:42:21;92113.13;;;5.61;100.00
9690;BME280;4884;42.614;23.340;2024-03-02T01:44:47;91990.59;;;4.71;100.00
9690;BME280;4884;42.614;23.340;2024-03-02T01:47:12;92106.78;;;5.41;100.00
9690;BME280;4884;42.614;23.340;2024-03-02T01:49:38;92090.13;;;5.30;100.00
9690;BME280;4884;42.614;23.340;2024-03-02T01:52:04;92084.38;;;5.24;100.00
9690;BME280;4884;42.614;23.340;2024-03-02T01:54:29;92107.06;;;5.31;100.00
9690;BME280;4884;42.614;23.340;2024-03-02T01:56:54;92098.16;;;5.28;100.00
9690;BME280;4884;42.614;23.340;2024-03-02T01:59:20;92082.56;;;5.25;100.00
9690;BME280;4884;42.614;23.340;2024-03-02T02:01:46;92089.22;;;5.35;100.00
9690;BME280;4884;42.614;23.340;2024-03-02T02:04:11;92091.34;;;5.41;100.00
9690;BME280;4884;42.614;23.340;2024-03-02T02:06:36;92002.66;;;4.62;100.00
9690;BME280;4884;42.614;23.340;2024-03-02T02:09:02;92036.72;;;4.76;100.00
9690;BME280;4884;42.614;23.340;2024-03-02T02:11:28;92110.41;;;5.23;100.00
9690;BME280;4884;42.614;23.340;2024-03-02T02:13:53;92115.53;;;5.23;100.00
9690;BME280;4884;42.614;23.340;2024-03-02T02:16:20;91965.59;;;4.37;100.00
9690;BME280;4884;42.614;23.340;2024-03-02T02:18:46;92098.63;;;5.22;100.00
9690;BME280;4884;42.614;23.340;2024-03-02T02:21:11;92095.88;;;5.27;100.00
9690;BME280;4884;42.614;23.340;2024-03-02T02:23:36;91991.63;;;4.61;100.00
9690;BME280;4884;42.614;23.340;2024-03-02T02:26:02;92086.03;;;5.29;100.00
9690;BME280;4884;42.614;23.340;2024-03-02T02:28:29;92116.16;;;5.37;100.00
9690;BME280;4884;42.614;23.340;2024-03-02T02:30:55;92096.31;;;5.38;100.00
9690;BME280;4884;42.614;23.340;2024-03-02T02:33:21;92094.50;;;5.29;100.00
9690;BME280;4884;42.614;23.340;2024-03-02T02:35:47;92083.47;;;5.29;100.00
9690;BME280;4884;42.614;23.340;2024-03-02T02:38:12;91976.53;;;4.68;100.00
9690;BME280;4884;42.614;23.340;2024-03-02T02:40:38;92106.00;;;5.49;100.00
9690;BME280;4884;42.614;23.340;2024-03-02T02:43:03;92089.38;;;5.47;100.00
9690;BME280;4884;42.614;23.340;2024-03-02T02:45:28;92005.28;;;5.04;100.00
9690;BME280;4884;42.614;23.340;2024-03-02T02:47:54;92112.50;;;5.72;100.00
9690;BME280;4884;42.614;23.340;2024-03-02T02:50:20;92113.59;;;5.63;100.00
9690;BME280;4884;42.614;23.340;2024-03-02T02:52:45;92101.16;;;5.65;100.00
9690;BME280;4884;42.614;23.340;2024-03-02T02:55:13;92048.19;;;5.38;100.00
9690;BME280;4884;42.614;23.340;2024-03-02T02:57:40;92090.88;;;5.65;100.00
9690;BME280;4884;42.614;23.340;2024-03-02T03:00:09;92086.19;;;5.58;100.00
9690;BME280;4884;42.614;23.340;2024-03-02T03:02:46;91996.63;;;5.09;100.00
9690;BME280;4884;42.614;23.340;2024-03-02T03:05:13;91987.56;;;5.03;100.00
9690;BME280;4884;42.614;23.340;2024-03-02T03:07:40;92101.00;;;5.87;100.00
9690;BME280;4884;42.614;23.340;2024-03-02T03:10:06;92102.50;;;5.79;100.00
9690;BME280;4884;42.614;23.340;2024-03-02T03:12:33;92103.84;;;5.77;100.00
9690;BME280;4884;42.614;23.340;2024-03-02T03:14:58;91981.34;;;5.12;100.00
9690;BME280;4884;42.614;23.340;2024-03-02T03:17:24;92102.50;;;5.79;100.00
9690;BME280;4884;42.614;23.340;2024-03-02T03:19:50;92086.91;;;5.93;100.00
9690;BME280;4884;42.614;23.340;2024-03-02T03:22:16;92095.25;;;5.73;100.00
9690;BME280;4884;42.614;23.340;2024-03-02T03:24:41;92085.28;;;5.54;100.00
9690;BME280;4884;42.614;23.340;2024-03-02T03:27:07;92089.50;;;5.76;100.00
9690;BME280;4884;42.614;23.340;2024-03-02T03:29:32;92103.72;;;5.73;100.00
9690;BME280;4884;42.614;23.340;2024-03-02T03:31:58;92089.03;;;5.74;100.00
9690;BME280;4884;42.614;23.340;2024-03-02T03:34:23;91982.09;;;4.96;100.00
9690;BME280;4884;42.614;23.340;2024-03-02T03:36:48;92083.16;;;5.56;100.00
9690;BME280;4884;42.614;23.340;2024-03-02T03:39:14;92080.44;;;5.61;100.00
9690;BME280;4884;42.614;23.340;2024-03-02T03:41:40;92039.91;;;5.24;100.00
9690;BME280;4884;42.614;23.340;2024-03-02T03:44:05;91990.00;;;4.74;100.00
9690;BME280;4884;42.614;23.340;2024-03-02T03:46:31;92100.13;;;5.40;100.00
9690;BME280;4884;42.614;23.340;2024-03-02T03:48:56;92101.00;;;5.44;100.00
9690;BME280;4884;42.614;23.340;2024-03-02T03:51:22;91986.06;;;4.85;100.00
9690;BME280;4884;42.614;23.340;2024-03-02T03:53:50;92106.00;;;5.58;100.00
9690;BME280;4884;42.614;23.340;2024-03-02T03:56:15;91981.84;;;4.72;100.00
9690;BME280;4884;42.614;23.340;2024-03-02T03:58:40;92108.13;;;5.64;100.00
9690;BME280;4884;42.614;23.340;2024-03-02T04:01:06;92105.09;;;5.54;100.00
9690;BME280;4884;42.614;23.340;2024-03-02T04:03:32;92071.06;;;5.31;100.00
9690;BME280;4884;42.614;23.340;2024-03-02T04:05:57;92122.81;;;5.55;100.00
9690;BME280;4884;42.614;23.340;2024-03-02T04:08:22;92126.91;;;5.65;100.00
9690;BME280;4884;42.614;23.340;2024-03-02T04:10:48;92105.88;;;5.37;100.00
9690;BME280;4884;42.614;23.340;2024-03-02T04:13:13;92091.94;;;5.21;100.00
9690;BME280;4884;42.614;23.340;2024-03-02T04:15:38;92094.06;;;5.19;100.00
9690;BME280;4884;42.614;23.340;2024-03-02T04:18:06;92083.00;;;5.18;100.00
9690;BME280;4884;42.614;23.340;2024-03-02T04:20:31;91964.88;;;4.36;100.00
9690;BME280;4884;42.614;23.340;2024-03-02T04:22:56;92102.09;;;5.17;100.00
9690;BME280;4884;42.614;23.340;2024-03-02T04:25:22;92116.00;;;5.16;100.00
9690;BME280;4884;42.614;23.340;2024-03-02T04:27:47;92105.25;;;5.06;100.00
9690;BME280;4884;42.614;23.340;2024-03-02T04:30:12;92104.50;;;5.05;100.00
9690;BME280;4884;42.614;23.340;2024-03-02T04:32:38;92091.03;;;5.08;100.00
9690;BME280;4884;42.614;23.340;2024-03-02T04:35:04;91997.38;;;4.49;100.00
9690;BME280;4884;42.614;23.340;2024-03-02T04:37:33;92143.56;;;5.42;100.00
9690;BME280;4884;42.614;23.340;2024-03-02T04:39:58;91990.84;;;4.35;100.00
9690;BME280;4884;42.614;23.340;2024-03-02T04:42:23;92110.25;;;5.19;100.00
9690;BME280;4884;42.614;23.340;2024-03-02T04:44:49;92027.78;;;4.73;100.00
9690;BME280;4884;42.614;23.340;2024-03-02T04:47:15;92132.66;;;5.19;100.00
9690;BME280;4884;42.614;23.340;2024-03-02T04:49:40;92126.72;;;5.10;100.00
9690;BME280;4884;42.614;23.340;2024-03-02T04:52:05;92121.28;;;5.11;100.00
9690;BME280;4884;42.614;23.340;2024-03-02T04:54:31;92008.06;;;4.34;100.00
9690;BME280;4884;42.614;23.340;2024-03-02T04:56:56;92108.72;;;5.01;100.00
9690;BME280;4884;42.614;23.340;2024-03-02T04:59:22;92112.97;;;5.06;100.00
9690;BME280;4884;42.614;23.340;2024-03-02T05:01:47;92021.72;;;4.52;100.00
9690;BME280;4884;42.614;23.340;2024-03-02T05:04:13;92131.59;;;5.28;100.00
9690;BME280;4884;42.614;23.340;2024-03-02T05:06:39;92119.47;;;5.20;100.00
9690;BME280;4884;42.614;23.340;2024-03-02T05:09:08;92102.81;;;5.01;100.00
9690;BME280;4884;42.614;23.340;2024-03-02T05:11:33;92133.56;;;5.23;100.00
9690;BME280;4884;42.614;23.340;2024-03-02T05:14:05;92117.34;;;5.14;100.00
9690;BME280;4884;42.614;23.340;2024-03-02T05:16:36;92094.78;;;5.02;100.00
9690;BME280;4884;42.614;23.340;2024-03-02T05:19:03;92125.84;;;5.23;100.00
9690;BME280;4884;42.614;23.340;2024-03-02T05:21:31;92124.78;;;5.24;100.00
9690;BME280;4884;42.614;23.340;2024-03-02T05:23:57;92149.44;;;5.33;100.00
9690;BME280;4884;42.614;23.340;2024-03-02T05:26:22;92163.97;;;5.38;100.00
9690;BME280;4884;42.614;23.340;2024-03-02T05:28:48;92139.78;;;5.30;100.00
9690;BME280;4884;42.614;23.340;2024-03-02T05:31:16;92146.44;;;5.40;100.00
9690;BME280;4884;42.614;23.340;2024-03-02T05:33:42;92164.88;;;5.42;100.00
9690;BME280;4884;42.614;23.340;2024-03-02T05:36:08;92130.53;;;5.29;100.00
9690;BME280;4884;42.614;23.340;2024-03-02T05:38:36;92150.81;;;5.40;100.00
9690;BME280;4884;42.614;23.340;2024-03-02T05:41:02;92022.44;;;4.52;100.00
9690;BME280;4884;42.614;23.340;2024-03-02T05:43:27;91972.69;;;4.14;100.00
9690;BME280;4884;42.614;23.340;2024-03-02T05:45:53;92168.34;;;5.29;100.00
9690;BME280;4884;42.614;23.340;2024-03-02T05:48:19;92065.66;;;4.50;100.00
9690;BME280;4884;42.614;23.340;2024-03-02T05:50:44;92142.47;;;5.00;100.00
9690;BME280;4884;42.614;23.340;2024-03-02T05:53:09;92178.06;;;5.32;100.00
9690;BME280;4884;42.614;23.340;2024-03-02T05:55:35;92121.28;;;5.03;100.00
9690;BME280;4884;42.614;23.340;2024-03-02T05:58:00;92108.84;;;4.88;100.00
9690;BME280;4884;42.614;23.340;2024-03-02T06:00:32;92160.94;;;5.19;100.00
9690;BME280;4884;42.614;23.340;2024-03-02T06:02:58;92032.28;;;4.50;100.00
9690;BME280;4884;42.614;23.340;2024-03-02T06:05:23;92176.09;;;5.46;100.00
9690;BME280;4884;42.614;23.340;2024-03-02T06:07:49;92044.41;;;4.67;100.00
9690;BME280;4884;42.614;23.340;2024-03-02T06:10:15;92143.09;;;5.31;100.00
9690;BME280;4884;42.614;23.340;2024-03-02T06:12:40;92152.78;;;5.25;100.00
9690;BME280;4884;42.614;23.340;2024-03-02T06:15:06;92150.97;;;5.26;100.00
9690;BME280;4884;42.614;23.340;2024-03-02T06:17:32;92149.00;;;5.23;100.00
9690;BME280;4884;42.614;23.340;2024-03-02T06:19:57;92059.66;;;4.64;100.00
9690;BME280;4884;42.614;23.340;2024-03-02T06:22:22;92064.34;;;4.62;100.00
9690;BME280;4884;42.614;23.340;2024-03-02T06:24:50;92134.47;;;5.18;100.00
9690;BME280;4884;42.614;23.340;2024-03-02T06:27:15;92141.56;;;5.13;100.00
9690;BME280;4884;42.614;23.340;2024-03-02T06:29:41;92185.66;;;5.46;100.00
9690;BME280;4884;42.614;23.340;2024-03-02T06:32:07;92166.84;;;5.28;100.00
9690;BME280;4884;42.614;23.340;2024-03-02T06:34:32;92172.44;;;5.13;100.00
9690;BME280;4884;42.614;23.340;2024-03-02T06:36:58;92147.31;;;5.10;100.00
9690;BME280;4884;42.614;23.340;2024-03-02T06:39:23;92134.28;;;4.98;100.00
9690;BME280;4884;42.614;23.340;2024-03-02T06:41:48;92179.72;;;5.28;100.00
9690;BME280;4884;42.614;23.340;2024-03-02T06:44:14;92201.81;;;5.38;100.00
9690;BME280;4884;42.614;23.340;2024-03-02T06:46:39;92116.06;;;4.69;100.00
9690;BME280;4884;42.614;23.340;2024-03-02T06:49:04;92204.25;;;5.34;100.00
9690;BME280;4884;42.614;23.340;2024-03-02T06:51:30;92210.59;;;5.37;100.00
9690;BME280;4884;42.614;23.340;2024-03-02T06:53:55;92189.56;;;5.26;100.00
9690;BME280;4884;42.614;23.340;2024-03-02T06:56:21;92064.44;;;4.48;100.00
9690;BME280;4884;42.614;23.340;2024-03-02T06:58:46;92188.66;;;5.22;100.00
9690;BME280;4884;42.614;23.340;2024-03-02T07:01:12;92184.56;;;5.29;100.00
9690;BME280;4884;42.614;23.340;2024-03-02T07:03:38;92187.91;;;5.39;100.00
9690;BME280;4884;42.614;23.340;2024-03-02T07:06:05;92199.25;;;5.46;100.00
9690;BME280;4884;42.614;23.340;2024-03-02T07:08:30;92186.56;;;5.41;100.00
9690;BME280;4884;42.614;23.340;2024-03-02T07:10:56;92186.41;;;5.55;100.00
9690;BME280;4884;42.614;23.340;2024-03-02T07:13:22;92187.75;;;5.35;100.00
9690;BME280;4884;42.614;23.340;2024-03-02T07:15:47;92192.00;;;5.48;100.00
9690;BME280;4884;42.614;23.340;2024-03-02T07:18:44;92187.31;;;5.42;100.00
9690;BME280;4884;42.614;23.340;2024-03-02T07:21:16;92196.09;;;5.66;100.00
9690;BME280;4884;42.614;23.340;2024-03-02T07:23:41;92194.41;;;5.53;100.00
9690;BME280;4884;42.614;23.340;2024-03-02T07:26:07;92186.38;;;5.46;100.00
9690;BME280;4884;42.614;23.340;2024-03-02T07:28:32;92202.75;;;5.50;100.00
9690;BME280;4884;42.614;23.340;2024-03-02T07:31:02;92190.03;;;5.45;100.00
9690;BME280;4884;42.614;23.340;2024-03-02T07:33:28;92210.63;;;5.62;100.00
9690;BME280;4884;42.614;23.340;2024-03-02T07:35:54;92209.28;;;5.56;100.00
9690;BME280;4884;42.614;23.340;2024-03-02T07:38:20;92028.66;;;4.51;100.00
9690;BME280;4884;42.614;23.340;2024-03-02T07:40:46;92082.38;;;4.87;100.00
9690;BME280;4884;42.614;23.340;2024-03-02T07:43:12;92218.34;;;5.79;100.00
9690;BME280;4884;42.614;23.340;2024-03-02T07:45:37;92096.19;;;5.00;100.00
9690;BME280;4884;42.614;23.340;2024-03-02T07:48:03;92105.69;;;5.08;100.00
9690;BME280;4884;42.614;23.340;2024-03-02T07:50:29;92189.44;;;5.74;100.00
9690;BME280;4884;42.614;23.340;2024-03-02T07:52:55;92206.56;;;5.78;100.00
9690;BME280;4884;42.614;23.340;2024-03-02T07:55:21;92206.25;;;5.80;100.00
9690;BME280;4884;42.614;23.340;2024-03-02T07:57:46;92111.16;;;5.06;100.00
9690;BME280;4884;42.614;23.340;2024-03-02T08:00:12;92113.09;;;5.01;100.00
9690;BME280;4884;42.614;23.340;2024-03-02T08:02:39;92192.31;;;5.72;100.00
9690;BME280;4884;42.614;23.340;2024-03-02T08:05:05;92215.19;;;5.82;100.00
9690;BME280;4884;42.614;23.340;2024-03-02T08:07:31;92224.63;;;5.87;100.00
9690;BME280;4884;42.614;23.340;2024-03-02T08:09:56;92114.44;;;4.90;100.00
9690;BME280;4884;42.614;23.340;2024-03-02T08:12:22;92112.34;;;5.00;100.00
9690;BME280;4884;42.614;23.340;2024-03-02T08:14:48;92118.84;;;4.98;100.00
9690;BME280;4884;42.614;23.340;2024-03-02T08:17:14;92217.00;;;5.56;100.00
9690;BME280;4884;42.614;23.340;2024-03-02T08:19:39;92213.97;;;5.71;100.00
9690;BME280;4884;42.614;23.340;2024-03-02T08:22:04;92222.19;;;5.99;100.00
9690;BME280;4884;42.614;23.340;2024-03-02T08:24:30;92225.78;;;5.72;100.00
9690;BME280;4884;42.614;23.340;2024-03-02T08:26:55;92198.97;;;5.73;100.00
9690;BME280;4884;42.614;23.340;2024-03-02T08:29:21;92229.59;;;6.09;100.00
9690;BME280;4884;42.614;23.340;2024-03-02T08:31:46;92207.03;;;5.97;100.00
9690;BME280;4884;42.614;23.340;2024-03-02T08:34:12;92223.69;;;5.83;100.00
9690;BME280;4884;42.614;23.340;2024-03-02T08:36:37;92240.38;;;5.94;100.00
9690;BME280;4884;42.614;23.340;2024-03-02T08:39:03;92209.59;;;6.06;100.00
9690;BME280;4884;42.614;23.340;2024-03-02T08:41:32;92101.63;;;5.50;100.00
9690;BME280;4884;42.614;23.340;2024-03-02T08:43:57;92214.72;;;6.32;100.00
9690;BME280;4884;42.614;23.340;2024-03-02T08:46:22;92041.41;;;5.25;100.00
9690;BME280;4884;42.614;23.340;2024-03-02T08:48:48;92229.88;;;6.42;100.00
9690;BME280;4884;42.614;23.340;2024-03-02T08:51:13;92115.84;;;5.64;100.00
9690;BME280;4884;42.614;23.340;2024-03-02T08:53:39;92113.13;;;5.86;100.00
9690;BME280;4884;42.614;23.340;2024-03-02T08:56:04;92203.28;;;7.05;100.00
9690;BME280;4884;42.614;23.340;2024-03-02T08:58:31;92077.03;;;6.03;100.00
9690;BME280;4884;42.614;23.340;2024-03-02T09:00:56;92074.13;;;6.05;100.00
9690;BME280;4884;42.614;23.340;2024-03-02T09:03:22;92143.63;;;6.68;100.00
9690;BME280;4884;42.614;23.340;2024-03-02T09:05:47;92199.59;;;7.06;100.00
9690;BME280;4884;42.614;23.340;2024-03-02T09:08:13;92131.69;;;6.64;100.00
9690;BME280;4884;42.614;23.340;2024-03-02T09:10:39;92127.44;;;6.68;100.00
9690;BME280;4884;42.614;23.340;2024-03-02T09:13:05;92163.44;;;6.85;100.00
9690;BME280;4884;42.614;23.340;2024-03-02T09:15:30;92130.44;;;6.32;100.00
9690;BME280;4884;42.614;23.340;2024-03-02T09:17:56;92241.25;;;7.33;100.00
9690;BME280;4884;42.614;23.340;2024-03-02T09:20:21;92106.78;;;6.39;100.00
9690;BME280;4884;42.614;23.340;2024-03-02T09:22:48;92134.22;;;6.35;100.00
9690;BME280;4884;42.614;23.340;2024-03-02T09:25:14;92245.69;;;7.24;100.00
9690;BME280;4884;42.614;23.340;2024-03-02T09:27:39;92118.84;;;6.47;100.00
9690;BME280;4884;42.614;23.340;2024-03-02T09:30:08;92132.41;;;6.35;100.00
9690;BME280;4884;42.614;23.340;2024-03-02T09:32:34;92139.25;;;6.69;100.00
9690;BME280;4884;42.614;23.340;2024-03-02T09:34:59;92227.94;;;7.14;100.00
9690;BME280;4884;42.614;23.340;2024-03-02T09:37:25;92238.91;;;7.11;100.00
9690;BME280;4884;42.614;23.340;2024-03-02T09:39:51;92237.19;;;7.24;100.00
9690;BME280;4884;42.614;23.340;2024-03-02T09:42:17;92199.41;;;6.81;100.00
9690;BME280;4884;42.614;23.340;2024-03-02T09:44:43;92195.22;;;6.68;100.00
9690;BME280;4884;42.614;23.340;2024-03-02T09:47:08;92112.63;;;6.10;100.00
9690;BME280;4884;42.614;23.340;2024-03-02T09:49:34;92226.28;;;6.80;100.00
9690;BME280;4884;42.614;23.340;2024-03-02T09:52:00;92107.03;;;5.99;100.00
9690;BME280;4884;42.614;23.340;2024-03-02T09:54:25;92206.84;;;6.83;100.00
9690;BME280;4884;42.614;23.340;2024-03-02T09:56:51;92124.53;;;6.32;100.00
9690;BME280;4884;42.614;23.340;2024-03-02T09:59:16;92250.47;;;7.05;100.00
9690;BME280;4884;42.614;23.340;2024-03-02T10:02:00;92236.56;;;6.89;100.00
9690;BME280;4884;42.614;23.340;2024-03-02T10:04:27;92234.19;;;6.67;100.00
9690;BME280;4884;42.614;23.340;2024-03-02T10:07:12;92253.56;;;6.90;100.00
9690;BME280;4884;42.614;23.340;2024-03-02T10:09:38;92166.91;;;6.51;100.00
9690;BME280;4884;42.614;23.340;2024-03-02T10:12:05;92137.81;;;6.51;100.00
9690;BME280;4884;42.614;23.340;2024-03-02T10:14:30;92246.25;;;7.30;100.00
9690;BME280;4884;42.614;23.340;2024-03-02T10:17:02;92157.47;;;6.64;100.00
9690;BME280;4884;42.614;23.340;2024-03-02T10:19:28;92257.66;;;7.29;100.00
9690;BME280;4884;42.614;23.340;2024-03-02T10:21:58;92163.34;;;6.73;100.00
9690;BME280;4884;42.614;23.340;2024-03-02T10:24:24;92130.69;;;6.48;100.00
9690;BME280;4884;42.614;23.340;2024-03-02T10:26:50;92204.13;;;6.79;100.00
9690;BME280;4884;42.614;23.340;2024-03-02T10:29:16;92214.44;;;6.79;100.00
9690;BME280;4884;42.614;23.340;2024-03-02T10:31:43;92244.50;;;7.13;100.00
9690;BME280;4884;42.614;23.340;2024-03-02T10:34:10;92138.00;;;6.37;100.00
9690;BME280;4884;42.614;23.340;2024-03-02T10:36:37;92145.31;;;6.18;100.00
9690;BME280;4884;42.614;23.340;2024-03-02T10:39:06;92248.66;;;6.97;100.00
9690;BME280;4884;42.614;23.340;2024-03-02T10:41:33;92143.81;;;6.17;100.00
9690;BME280;4884;42.614;23.340;2024-03-02T10:44:02;92114.88;;;6.12;100.00
9690;BME280;4884;42.614;23.340;2024-03-02T10:46:28;92133.66;;;6.21;100.00
9690;BME280;4884;42.614;23.340;2024-03-02T10:48:55;92236.03;;;6.58;100.00
9690;BME280;4884;42.614;23.340;2024-03-02T10:51:21;92220.72;;;6.61;100.00
9690;BME280;4884;42.614;23.340;2024-03-02T10:53:46;92102.38;;;5.76;100.00
9690;BME280;4884;42.614;23.340;2024-03-02T10:56:16;92216.31;;;6.62;100.00
9690;BME280;4884;42.614;23.340;2024-03-02T10:58:50;92213.28;;;6.60;100.00
9690;BME280;4884;42.614;23.340;2024-03-02T11:01:19;92222.53;;;6.69;100.00
9690;BME280;4884;42.614;23.340;2024-03-02T11:03:45;92239.31;;;6.84;100.00
9690;BME280;4884;42.614;23.340;2024-03-02T11:06:11;92243.25;;;6.81;100.00
9690;BME280;4884;42.614;23.340;2024-03-02T11:08:38;92131.56;;;6.05;100.00
9690;BME280;4884;42.614;23.340;2024-03-02T11:11:19;92191.31;;;6.54;100.00
9690;BME280;4884;42.614;23.340;2024-03-02T11:13:49;92106.88;;;6.04;100.00
9690;BME280;4884;42.614;23.340;2024-03-02T11:16:30;92120.75;;;6.21;100.00
9690;BME280;4884;42.614;23.340;2024-03-02T11:19:00;92213.72;;;6.70;100.00
9690;BME280;4884;42.614;23.340;2024-03-02T11:21:26;92212.06;;;6.66;100.00
9690;BME280;4884;42.614;23.340;2024-03-02T11:23:52;92236.56;;;6.89;100.00
9690;BME280;4884;42.614;23.340;2024-03-02T11:26:21;92222.00;;;6.85;100.00
9690;BME280;4884;42.614;23.340;2024-03-02T11:28:47;92143.34;;;6.24;100.00
9690;BME280;4884;42.614;23.340;2024-03-02T11:31:13;92211.16;;;6.70;100.00
9690;BME280;4884;42.614;23.340;2024-03-02T11:33:38;92105.84;;;5.88;100.00
9690;BME280;4884;42.614;23.340;2024-03-02T11:36:06;92192.41;;;6.53;100.00
9690;BME280;4884;42.614;23.340;2024-03-02T11:38:32;92218.59;;;6.63;100.00
9690;BME280;4884;42.614;23.340;2024-03-02T11:41:03;92206.94;;;6.57;100.00
9690;BME280;4884;42.614;23.340;2024-03-02T11:43:32;92204.22;;;6.54;100.00
9690;BME280;4884;42.614;23.340;2024-03-02T11:46:03;92124.47;;;6.02;100.00
9690;BME280;4884;42.614;23.340;2024-03-02T11:48:32;92090.69;;;5.95;100.00
9690;BME280;4884;42.614;23.340;2024-03-02T11:50:59;92114.88;;;6.12;100.00
9690;BME280;4884;42.614;23.340;2024-03-02T11:53:27;92139.13;;;6.11;100.00
9690;BME280;4884;42.614;23.340;2024-03-02T11:55:55;92223.28;;;6.70;100.00
9690;BME280;4884;42.614;23.340;2024-03-02T11:58:21;92234.16;;;6.84;100.00
9690;BME280;4884;42.614;23.340;2024-03-02T12:00:54;92231.41;;;6.89;100.00
9690;BME280;4884;42.614;23.340;2024-03-02T12:03:22;92230.78;;;6.92;100.00
9690;BME280;4884;42.614;23.340;2024-03-02T12:05:53;92230.38;;;6.73;100.00
9690;BME280;4884;42.614;23.340;2024-03-02T12:08:19;92129.13;;;6.18;100.00
9690;BME280;4884;42.614;23.340;2024-03-02T12:10:58;92207.81;;;6.70;100.00
9690;BME280;4884;42.614;23.340;2024-03-02T12:13:23;92100.38;;;5.98;100.00
9690;BME280;4884;42.614;23.340;2024-03-02T12:15:53;92211.91;;;6.62;100.00
9690;BME280;4884;42.614;23.340;2024-03-02T12:18:20;92183.88;;;6.61;100.00
9690;BME280;4884;42.614;23.340;2024-03-02T12:20:45;92130.34;;;6.12;100.00
9690;BME280;4884;42.614;23.340;2024-03-02T12:23:10;92221.00;;;6.77;100.00
9690;BME280;4884;42.614;23.340;2024-03-02T12:25:36;92223.00;;;6.63;100.00
9690;BME280;4884;42.614;23.340;2024-03-02T12:28:01;92131.72;;;6.09;100.00
9690;BME280;4884;42.614;23.340;2024-03-02T12:30:29;92131.44;;;6.02;100.00
9690;BME280;4884;42.614;23.340;2024-03-02T12:32:55;92223.00;;;6.63;100.00
9690;BME280;4884;42.614;23.340;2024-03-02T12:35:21;92234.66;;;6.60;100.00
9690;BME280;4884;42.614;23.340;2024-03-02T12:37:48;92208.13;;;6.60;100.00
9690;BME280;4884;42.614;23.340;2024-03-02T12:40:15;92228.53;;;6.82;100.00
9690;BME280;4884;42.614;23.340;2024-03-02T12:42:42;92193.00;;;6.50;100.00
9690;BME280;4884;42.614;23.340;2024-03-02T12:45:08;92216.31;;;6.62;100.00
9690;BME280;4884;42.614;23.340;2024-03-02T12:47:34;92230.09;;;6.74;100.00
9690;BME280;4884;42.614;23.340;2024-03-02T12:50:00;92227.19;;;6.76;100.00
9690;BME280;4884;42.614;23.340;2024-03-02T12:52:26;92240.38;;;6.83;100.00
9690;BME280;4884;42.614;23.340;2024-03-02T12:54:51;92227.34;;;6.71;100.00
9690;BME280;4884;42.614;23.340;2024-03-02T12:57:20;92238.41;;;6.80;100.00
9690;BME280;4884;42.614;23.340;2024-03-02T12:59:46;92233.63;;;6.61;100.00
9690;BME280;4884;42.614;23.340;2024-03-02T13:02:18;92219.81;;;6.66;100.00
9690;BME280;4884;42.614;23.340;2024-03-02T13:04:44;92120.97;;;5.98;100.00
9690;BME280;4884;42.614;23.340;2024-03-02T13:07:10;92246.66;;;6.65;100.00
9690;BME280;4884;42.614;23.340;2024-03-02T13:09:38;92215.41;;;6.58;100.00